Time;durP1;ratioP1;P1;durP2;ratioP2;P2;SDS_P1;SDS_P2;PMS_P1;PMS_P2;Temp;Humidity;BMP_temperature;BMP_pressure;BME280_temperature;BME280_humidity;BME280_pressure;Samples;Min_cycle;Max_cycle;Signal;HPM_P1;HPM_P2
2022/05/04 00:02:18;;;;;;;20.13;11.13;;;11.70;99.90;;;;;;5051352;28;20364;-44
2022/05/04 00:04:43;;;;;;;20.27;10.90;;;11.70;99.90;;;;;;5051495;28;20607;-44
2022/05/04 00:07:09;;;;;;;20.38;11.15;;;11.70;99.90;;;;;;5051779;28;20171;-44
2022/05/04 00:09:34;;;;;;;20.05;11.60;;;11.70;99.90;;;;;;5051868;28;20245;-44
2022/05/04 00:12:00;;;;;;;18.15;11.45;;;11.60;99.90;;;;;;5052075;28;20175;-44
2022/05/04 00:14:25;;;;;;;21.90;11.57;;;11.70;99.90;;;;;;5051652;28;20546;-43
2022/05/04 00:16:52;;;;;;;19.35;11.23;;;11.70;99.90;;;;;;5054043;28;20559;-44
2022/05/04 00:19:18;;;;;;;16.98;11.20;;;11.60;99.90;;;;;;5055909;28;20181;-44
2022/05/04 00:21:44;;;;;;;16.15;10.68;;;11.60;99.90;;;;;;5055540;28;20574;-44
2022/05/04 00:24:09;;;;;;;20.30;11.32;;;11.60;99.90;;;;;;5055597;28;20257;-44
2022/05/04 00:26:35;;;;;;;19.98;11.32;;;11.60;99.90;;;;;;5055494;28;20163;-46
2022/05/04 00:29:01;;;;;;;21.55;10.88;;;11.60;99.90;;;;;;5055891;28;20170;-45
2022/05/04 00:31:26;;;;;;;18.33;9.65;;;11.70;99.90;;;;;;5055653;28;20163;-43
2022/05/04 00:33:52;;;;;;;18.25;10.52;;;11.60;99.90;;;;;;5055384;28;20262;-44
2022/05/04 00:36:17;;;;;;;16.25;10.27;;;11.50;99.90;;;;;;5055391;28;20198;-44
2022/05/04 00:38:43;;;;;;;21.27;10.32;;;11.50;99.90;;;;;;5055323;28;20181;-44
2022/05/04 00:41:08;;;;;;;19.13;10.73;;;11.60;99.90;;;;;;5055299;28;20205;-44
2022/05/04 00:43:34;;;;;;;14.65;9.80;;;11.60;99.90;;;;;;5055467;28;20348;-44
2022/05/04 00:45:59;;;;;;;18.38;9.88;;;11.50;99.90;;;;;;5055738;28;20175;-43
2022/05/04 00:48:25;;;;;;;18.17;10.13;;;11.50;99.90;;;;;;5055449;28;20194;-44
2022/05/04 00:50:51;;;;;;;21.50;10.93;;;11.50;99.90;;;;;;5055089;28;20159;-44
2022/05/04 00:53:19;;;;;;;20.13;9.95;;;11.40;99.90;;;;;;5055069;28;20636;-44
2022/05/04 00:55:46;;;;;;;17.92;9.98;;;11.40;99.90;;;;;;5055047;28;20316;-44
2022/05/04 01:00:59;;;;;;;18.38;9.27;;;11.30;99.90;;;;;;5055157;28;20177;-43
2022/05/04 01:03:25;;;;;;;12.35;9.02;;;11.30;99.90;;;;;;5054714;28;20222;-43
2022/05/04 01:05:50;;;;;;;14.27;8.45;;;11.30;99.90;;;;;;5054853;28;20620;-44
2022/05/04 01:08:16;;;;;;;16.55;9.40;;;11.30;99.90;;;;;;5054732;28;20167;-43
2022/05/04 01:10:42;;;;;;;14.52;8.32;;;11.20;99.90;;;;;;5054964;28;20170;-44
2022/05/04 01:13:07;;;;;;;15.65;9.02;;;11.20;99.90;;;;;;5054631;28;20167;-44
2022/05/04 01:15:33;;;;;;;17.60;8.73;;;11.10;99.90;;;;;;5055119;28;20228;-44
2022/05/04 01:17:58;;;;;;;14.95;8.30;;;11.00;99.90;;;;;;5054828;28;20171;-44
2022/05/04 01:20:24;;;;;;;17.77;9.55;;;11.00;99.90;;;;;;5054492;28;20624;-43
2022/05/04 01:22:50;;;;;;;17.60;9.18;;;11.00;99.90;;;;;;5054421;28;20198;-44
2022/05/04 01:25:16;;;;;;;19.92;8.70;;;11.00;99.90;;;;;;5054509;28;20166;-45
2022/05/04 01:27:41;;;;;;;14.68;8.60;;;11.10;99.90;;;;;;5053872;28;20173;-44
2022/05/04 01:30:07;;;;;;;13.90;8.52;;;11.10;99.90;;;;;;5054399;28;20167;-44
2022/05/04 01:32:33;;;;;;;15.80;8.07;;;10.90;99.90;;;;;;5054547;28;20189;-44
2022/05/04 01:34:59;;;;;;;13.85;8.45;;;10.90;99.90;;;;;;5054267;28;20616;-45
2022/05/04 01:37:25;;;;;;;15.57;8.80;;;10.90;99.90;;;;;;5054163;28;20167;-43
2022/05/04 01:39:50;;;;;;;14.02;7.68;;;10.90;99.90;;;;;;5054270;28;20190;-43
2022/05/04 01:42:16;;;;;;;12.68;8.35;;;10.90;99.90;;;;;;5054076;28;20203;-44
2022/05/04 01:44:44;;;;;;;18.88;8.02;;;10.90;99.90;;;;;;5054299;28;20171;-44
2022/05/04 01:47:10;;;;;;;14.23;8.45;;;10.80;99.90;;;;;;5053986;28;20254;-44
2022/05/04 01:49:36;;;;;;;16.23;8.88;;;10.70;99.90;;;;;;5053989;28;20167;-44
2022/05/04 01:52:02;;;;;;;14.73;8.10;;;10.60;99.90;;;;;;5054474;28;20170;-44
2022/05/04 01:54:28;;;;;;;16.13;8.00;;;10.70;99.90;;;;;;5054186;28;20180;-44
2022/05/04 01:56:54;;;;;;;20.15;8.02;;;10.70;99.90;;;;;;5053845;28;20257;-44
2022/05/04 01:59:19;;;;;;;18.83;8.45;;;10.60;99.90;;;;;;5053809;28;20171;-44
2022/05/04 02:01:45;;;;;;;14.38;8.40;;;10.50;99.90;;;;;;5053767;28;20651;-44
2022/05/04 02:04:12;;;;;;;13.75;8.77;;;10.60;99.90;;;;;;5053558;28;20624;-44
2022/05/04 02:06:37;;;;;;;14.02;8.00;;;10.50;99.90;;;;;;5053691;28;20205;-44
2022/05/04 02:09:04;;;;;;;13.02;8.13;;;10.50;99.90;;;;;;5054189;28;20202;-44
2022/05/04 02:11:32;;;;;;;12.88;7.72;;;10.50;99.90;;;;;;5053796;28;20163;-43
2022/05/04 02:13:58;;;;;;;15.68;8.93;;;10.40;99.90;;;;;;5053429;28;20640;-44
2022/05/04 02:16:23;;;;;;;16.15;8.38;;;10.50;99.90;;;;;;5053530;28;20177;-44
2022/05/04 02:18:49;;;;;;;18.00;8.48;;;10.40;99.90;;;;;;5053387;28;20216;-49
2022/05/04 02:21:14;;;;;;;23.33;10.98;;;10.30;99.90;;;;;;5053468;28;20249;-50
2022/05/04 02:23:40;;;;;;;15.60;9.73;;;10.30;99.90;;;;;;5053257;28;20290;-46
2022/05/04 02:26:05;;;;;;;15.68;9.63;;;10.20;99.90;;;;;;5053286;28;20248;-46
2022/05/04 02:28:31;;;;;;;18.60;9.15;;;10.30;99.90;;;;;;5053591;28;20197;-46
2022/05/04 02:30:56;;;;;;;14.23;9.23;;;10.30;99.90;;;;;;5053156;28;20624;-44
2022/05/04 02:33:22;;;;;;;17.48;8.85;;;10.20;99.90;;;;;;5053134;28;20174;-46
2022/05/04 02:38:31;;;;;;;16.60;9.52;;;10.30;99.90;;;;;;5052743;28;20225;-44
2022/05/04 02:40:57;;;;;;;19.10;8.52;;;10.30;99.90;;;;;;5053046;28;20170;-44
2022/05/04 02:43:23;;;;;;;20.15;8.20;;;10.20;99.90;;;;;;5052833;28;20205;-44
2022/05/04 02:45:48;;;;;;;15.55;9.50;;;10.20;99.90;;;;;;5052938;28;20250;-46
2022/05/04 02:48:14;;;;;;;16.00;7.68;;;10.20;99.90;;;;;;5053094;28;20166;-44
2022/05/04 02:50:39;;;;;;;16.13;7.75;;;10.10;99.90;;;;;;5052868;28;20170;-44
2022/05/04 02:53:06;;;;;;;13.65;7.93;;;10.20;99.90;;;;;;5052774;28;20202;-44
2022/05/04 02:55:32;;;;;;;17.95;8.43;;;10.20;99.90;;;;;;5051747;28;20657;-44
2022/05/04 02:57:57;;;;;;;14.07;8.35;;;10.10;99.90;;;;;;5052687;28;20254;-43
2022/05/04 03:00:24;;;;;;;16.10;9.00;;;10.10;99.90;;;;;;5052643;28;20535;-44
2022/05/04 03:02:50;;;;;;;16.98;8.02;;;10.10;99.90;;;;;;5052529;28;20237;-45
2022/05/04 03:05:18;;;;;;;17.35;8.50;;;10.20;99.90;;;;;;5052640;28;20594;-44
2022/05/04 03:07:44;;;;;;;15.93;8.73;;;10.20;99.90;;;;;;5052511;28;20162;-44
2022/05/04 03:10:10;;;;;;;16.15;8.48;;;10.20;99.90;;;;;;5052550;28;20170;-44
2022/05/04 03:12:36;;;;;;;13.77;7.53;;;10.20;99.90;;;;;;5052661;28;20170;-44
2022/05/04 03:15:01;;;;;;;14.80;8.68;;;10.00;99.90;;;;;;5052934;28;20167;-44
2022/05/04 03:17:27;;;;;;;13.48;8.55;;;9.90;99.90;;;;;;5052329;28;20173;-43
2022/05/04 03:19:52;;;;;;;12.90;8.35;;;9.90;99.90;;;;;;5052309;28;20174;-43
2022/05/04 03:22:18;;;;;;;19.92;9.30;;;9.90;99.90;;;;;;5052188;28;20561;-43
2022/05/04 03:24:44;;;;;;;14.77;9.02;;;9.80;99.90;;;;;;5052218;28;20162;-44
2022/05/04 03:27:09;;;;;;;20.48;9.02;;;9.80;99.90;;;;;;5052425;28;20569;-43
2022/05/04 03:29:35;;;;;;;15.40;9.10;;;9.80;99.90;;;;;;5052182;28;20253;-46
2022/05/04 03:32:01;;;;;;;17.15;8.50;;;9.90;99.90;;;;;;5052682;28;20174;-44
2022/05/04 03:34:26;;;;;;;17.40;9.23;;;9.90;99.90;;;;;;5052359;28;20173;-43
2022/05/04 03:36:54;;;;;;;16.55;8.45;;;9.80;99.90;;;;;;5052341;28;20175;-44
2022/05/04 03:39:19;;;;;;;17.65;8.57;;;9.80;99.90;;;;;;5052273;28;20185;-44
2022/05/04 03:41:45;;;;;;;18.48;9.52;;;9.80;99.90;;;;;;5052169;28;20198;-44
2022/05/04 03:44:11;;;;;;;13.02;8.48;;;9.90;99.90;;;;;;5052220;28;20171;-43
2022/05/04 03:46:42;;;;;;;16.05;8.73;;;9.80;99.90;;;;;;5051970;28;20175;-44
2022/05/04 03:49:08;;;;;;;12.55;7.88;;;9.90;99.90;;;;;;5052278;28;20194;-45
2022/05/04 03:51:34;;;;;;;15.57;8.75;;;9.80;99.90;;;;;;5051918;28;20568;-45
2022/05/04 03:53:59;;;;;;;19.45;9.25;;;9.80;99.90;;;;;;5052136;28;20235;-44
2022/05/04 03:56:25;;;;;;;18.08;8.77;;;9.80;99.90;;;;;;5051794;28;20246;-47
2022/05/04 03:58:53;;;;;;;12.85;8.13;;;9.80;99.90;;;;;;5051804;28;20179;-48
2022/05/04 04:01:18;;;;;;;11.95;8.43;;;9.80;99.90;;;;;;5050471;28;20249;-45
2022/05/04 04:03:44;;;;;;;12.38;8.07;;;9.80;99.90;;;;;;5051592;28;20360;-47
2022/05/04 04:06:11;;;;;;;13.38;8.18;;;9.70;99.90;;;;;;5051953;28;20243;-44
2022/05/04 04:08:37;;;;;;;13.77;8.77;;;9.80;99.90;;;;;;5052100;28;20178;-44
2022/05/04 04:11:03;;;;;;;18.33;8.50;;;9.70;99.90;;;;;;5051990;28;20541;-44
2022/05/04 04:13:29;;;;;;;18.27;8.82;;;9.70;99.90;;;;;;5051814;28;20532;-43
2022/05/04 04:15:54;;;;;;;16.35;8.05;;;9.70;99.90;;;;;;5051819;28;20673;-45
2022/05/04 04:18:25;;;;;;;15.65;8.85;;;9.70;99.90;;;;;;5051966;28;20172;-44
2022/05/04 04:23:36;;;;;;;21.45;8.00;;;9.90;99.90;;;;;;5051550;28;20252;-44
2022/05/04 04:26:04;;;;;;;12.25;7.55;;;9.90;99.90;;;;;;5052083;28;20543;-45
2022/05/04 04:28:30;;;;;;;17.08;7.97;;;10.00;99.90;;;;;;5051585;28;20173;-45
2022/05/04 04:30:56;;;;;;;13.82;8.75;;;9.90;99.90;;;;;;5051558;28;20254;-45
2022/05/04 04:33:26;;;;;;;16.67;8.05;;;9.90;99.90;;;;;;5051498;28;20202;-46
2022/05/04 04:35:56;;;;;;;14.88;8.07;;;9.90;99.90;;;;;;5051713;28;20185;-45
2022/05/04 04:38:22;;;;;;;16.95;8.00;;;9.90;99.90;;;;;;5051484;28;20166;-45
2022/05/04 04:40:47;;;;;;;17.15;7.50;;;9.90;99.90;;;;;;5051699;28;20538;-45
2022/05/04 04:43:14;;;;;;;16.90;8.05;;;9.80;99.90;;;;;;5051348;28;20569;-45
2022/05/04 04:45:41;;;;;;;14.18;7.47;;;9.80;99.90;;;;;;5051602;28;20163;-44
2022/05/04 04:48:07;;;;;;;12.98;7.85;;;9.80;99.90;;;;;;5051304;28;20650;-44
2022/05/04 04:50:32;;;;;;;15.75;8.02;;;9.90;99.90;;;;;;5051618;28;20175;-47
2022/05/04 04:52:58;;;;;;;17.58;7.43;;;9.90;99.90;;;;;;5051290;28;20170;-45
2022/05/04 04:55:23;;;;;;;17.20;8.20;;;9.90;99.90;;;;;;5051311;28;20167;-45
2022/05/04 04:57:49;;;;;;;16.45;8.25;;;10.00;99.90;;;;;;5051194;28;20178;-45
2022/05/04 05:00:15;;;;;;;14.07;7.90;;;10.00;99.90;;;;;;5051477;28;20612;-45
2022/05/04 05:02:41;;;;;;;16.65;9.05;;;10.00;99.90;;;;;;5052992;28;20230;-44
2022/05/04 05:05:07;;;;;;;19.85;9.35;;;10.10;99.90;;;;;;5054488;28;20540;-45
2022/05/04 05:07:33;;;;;;;17.30;8.48;;;10.20;99.90;;;;;;5055033;28;20163;-45
2022/05/04 05:09:59;;;;;;;11.70;7.57;;;10.30;99.90;;;;;;5054752;28;20216;-44
2022/05/04 05:12:24;;;;;;;12.07;7.03;;;10.30;99.90;;;;;;5054782;28;20255;-45
2022/05/04 05:17:35;;;;;;;14.23;7.75;;;10.60;99.90;;;;;;5054897;28;20174;-45
2022/05/04 05:20:03;;;;;;;17.65;7.38;;;10.60;99.90;;;;;;5054809;28;20177;-46
2022/05/04 05:22:28;;;;;;;21.45;7.90;;;10.70;99.90;;;;;;5054403;28;20217;-44
2022/05/04 05:24:54;;;;;;;16.88;8.82;;;10.70;99.90;;;;;;5054498;28;20564;-44
2022/05/04 05:27:22;;;;;;;14.07;8.55;;;10.80;99.90;;;;;;5054518;28;20171;-44
2022/05/04 05:29:47;;;;;;;16.60;8.50;;;10.90;99.90;;;;;;5054645;28;20627;-45
2022/05/04 05:32:13;;;;;;;17.95;8.75;;;10.90;99.90;;;;;;5054345;28;20163;-44
2022/05/04 05:34:39;;;;;;;17.33;8.23;;;10.80;99.90;;;;;;5054478;28;20244;-44
2022/05/04 05:37:04;;;;;;;19.45;8.48;;;10.90;99.90;;;;;;5054194;28;20178;-44
2022/05/04 05:39:30;;;;;;;15.50;8.02;;;10.90;99.90;;;;;;5054458;28;20573;-44
2022/05/04 05:41:55;;;;;;;20.05;8.75;;;11.00;99.90;;;;;;5054057;28;20202;-44
2022/05/04 05:44:21;;;;;;;15.98;8.13;;;11.00;99.90;;;;;;5054088;28;20258;-44
2022/05/04 05:46:46;;;;;;;19.27;8.85;;;11.10;99.90;;;;;;5054190;28;20174;-44
2022/05/04 05:49:12;;;;;;;15.95;7.45;;;11.10;99.90;;;;;;5054095;28;20237;-46
2022/05/04 05:51:38;;;;;;;18.80;7.68;;;11.20;99.90;;;;;;5053758;28;20601;-45
2022/05/04 05:54:03;;;;;;;17.38;7.82;;;11.20;99.90;;;;;;5052872;28;20361;-44
2022/05/04 05:56:29;;;;;;;14.65;7.65;;;11.10;99.90;;;;;;5053868;28;20162;-45
2022/05/04 05:58:54;;;;;;;14.40;7.82;;;11.10;99.90;;;;;;5053743;28;20629;-45
2022/05/04 06:01:20;;;;;;;18.42;7.90;;;11.00;99.90;;;;;;5053682;28;20686;-45
2022/05/04 06:03:45;;;;;;;16.30;8.35;;;11.10;99.90;;;;;;5053440;28;20289;-44
2022/05/04 06:06:12;;;;;;;16.77;8.50;;;11.10;99.90;;;;;;5053878;28;20198;-45
2022/05/04 06:08:37;;;;;;;15.27;7.57;;;11.10;99.90;;;;;;5053648;28;20178;-46
2022/05/04 06:11:04;;;;;;;18.42;7.60;;;11.20;99.90;;;;;;5054176;28;20163;-46
2022/05/04 06:13:30;;;;;;;17.55;8.00;;;11.30;99.90;;;;;;5054021;28;20205;-44
2022/05/04 06:15:56;;;;;;;16.65;7.53;;;11.30;99.90;;;;;;5053432;28;20166;-44
2022/05/04 06:18:21;;;;;;;17.17;8.43;;;11.30;99.90;;;;;;5053750;28;20163;-44
2022/05/04 06:20:47;;;;;;;15.73;8.00;;;11.40;99.90;;;;;;5053365;28;20616;-45
2022/05/04 06:23:12;;;;;;;16.27;7.82;;;11.30;99.90;;;;;;5053322;28;20214;-43
2022/05/04 06:25:38;;;;;;;12.77;8.52;;;11.40;99.90;;;;;;5053277;28;20171;-44
2022/05/04 06:28:04;;;;;;;20.45;8.35;;;11.60;99.90;;;;;;5052287;28;20666;-44
2022/05/04 06:35:58;;;;;;;19.45;8.85;;;11.80;99.90;;;;;;5053037;28;20536;-44
2022/05/04 06:38:23;;;;;;;19.38;8.45;;;11.80;99.90;;;;;;5053061;28;20521;-44
2022/05/04 06:40:49;;;;;;;19.70;8.98;;;12.00;99.90;;;;;;5053061;28;20167;-43
2022/05/04 06:43:15;;;;;;;14.32;8.30;;;12.10;99.90;;;;;;5052861;28;20206;-45
2022/05/04 06:45:41;;;;;;;17.85;8.00;;;12.20;99.90;;;;;;5052920;28;20225;-44
2022/05/04 06:48:07;;;;;;;14.60;8.43;;;12.40;99.90;;;;;;5053094;28;20257;-44
2022/05/04 06:50:32;;;;;;;16.95;7.82;;;12.30;99.90;;;;;;5053133;28;20191;-45
2022/05/04 06:52:58;;;;;;;17.60;8.48;;;12.30;99.90;;;;;;5052792;28;20174;-45
2022/05/04 06:55:23;;;;;;;18.95;9.18;;;12.30;99.90;;;;;;5052715;28;20588;-46
2022/05/04 06:57:49;;;;;;;18.52;8.48;;;12.30;99.90;;;;;;5052680;28;20651;-47
2022/05/04 07:00:15;;;;;;;16.40;8.32;;;12.20;99.90;;;;;;5051303;28;20169;-44
2022/05/04 07:02:40;;;;;;;19.55;9.45;;;12.40;99.90;;;;;;5052364;28;20626;-51
2022/05/04 07:05:06;;;;;;;17.95;8.98;;;12.60;99.90;;;;;;5052498;28;20190;-44
2022/05/04 07:07:32;;;;;;;13.68;8.20;;;12.50;99.90;;;;;;5052753;28;20175;-44
2022/05/04 07:09:58;;;;;;;12.73;8.23;;;12.50;99.90;;;;;;5052471;28;20171;-48
2022/05/04 07:12:24;;;;;;;16.65;9.23;;;12.50;99.90;;;;;;5052472;28;20263;-46
2022/05/04 07:14:50;;;;;;;15.05;8.32;;;12.70;99.90;;;;;;5052653;28;20640;-44
2022/05/04 07:17:15;;;;;;;13.38;8.02;;;12.70;99.90;;;;;;5052634;28;20171;-44
2022/05/04 07:19:41;;;;;;;25.98;10.25;;;12.70;99.90;;;;;;5052305;28;20174;-45
2022/05/04 07:22:06;;;;;;;15.38;8.60;;;12.70;99.90;;;;;;5052545;28;20694;-44
2022/05/04 07:24:32;;;;;;;19.95;9.20;;;12.80;99.90;;;;;;5052258;28;20202;-44
2022/05/04 07:26:57;;;;;;;13.55;8.93;;;13.00;99.90;;;;;;5052175;28;20223;-46
2022/05/04 07:29:23;;;;;;;20.08;10.07;;;13.20;99.90;;;;;;5050918;28;20628;-46
2022/05/04 07:31:48;;;;;;;19.75;9.05;;;13.40;99.90;;;;;;5052196;28;20170;-46
2022/05/04 07:34:14;;;;;;;17.52;9.80;;;13.70;99.90;;;;;;5050388;28;20448;-45
2022/05/04 07:36:40;;;;;;;19.83;10.35;;;13.50;99.90;;;;;;5050908;28;20640;-46
2022/05/04 07:39:05;;;;;;;20.17;9.68;;;13.60;99.90;;;;;;5050422;28;20253;-46
2022/05/04 07:44:15;;;;;;;16.58;9.23;;;13.50;99.90;;;;;;5050649;28;20614;-46
2022/05/04 07:46:42;;;;;;;19.65;9.00;;;13.50;99.90;;;;;;5050984;28;20166;-42
2022/05/04 07:49:07;;;;;;;16.27;9.63;;;13.50;99.90;;;;;;5050830;28;20181;-47
2022/05/04 07:51:33;;;;;;;23.52;10.27;;;13.70;99.90;;;;;;5051212;28;20167;-43
2022/05/04 07:53:59;;;;;;;20.35;10.57;;;13.90;99.90;;;;;;5050585;28;20171;-42
2022/05/04 07:56:24;;;;;;;17.20;10.70;;;14.00;99.90;;;;;;5050583;28;20179;-44
2022/05/04 07:58:50;;;;;;;24.45;10.02;;;14.20;99.90;;;;;;5050448;28;20620;-49
2022/05/04 08:04:18;;;;;;;22.33;10.52;;;14.20;99.90;;;;;;5050540;28;20253;-47
2022/05/04 08:06:47;;;;;;;17.30;9.20;;;14.30;99.90;;;;;;5050246;28;20301;-46
2022/05/04 08:09:13;;;;;;;19.85;10.57;;;14.30;99.90;;;;;;5050554;28;20207;-50
2022/05/04 08:11:38;;;;;;;17.30;10.70;;;14.50;99.90;;;;;;5050272;28;20245;-45
2022/05/04 08:14:04;;;;;;;25.38;11.45;;;14.50;99.90;;;;;;5050153;28;20162;-42
2022/05/04 08:16:29;;;;;;;18.77;11.43;;;14.30;99.90;;;;;;5048459;28;20181;-47
2022/05/04 08:18:55;;;;;;;21.35;10.63;;;14.50;99.90;;;;;;5050198;28;20163;-51
2022/05/04 08:21:20;;;;;;;19.80;10.55;;;14.50;99.90;;;;;;5050315;28;20190;-44
2022/05/04 08:23:46;;;;;;;19.02;10.77;;;14.80;99.90;;;;;;5050314;28;20297;-44
2022/05/04 08:26:12;;;;;;;21.25;11.23;;;15.00;99.90;;;;;;5050482;28;20254;-43
2022/05/04 08:28:38;;;;;;;21.60;11.20;;;15.00;99.90;;;;;;5050581;28;20635;-40
2022/05/04 08:31:05;;;;;;;21.63;11.63;;;14.80;99.90;;;;;;5050439;28;20182;-51
2022/05/04 08:33:30;;;;;;;19.27;11.15;;;14.70;99.90;;;;;;5050788;28;20216;-51
2022/05/04 08:35:56;;;;;;;15.65;10.77;;;14.70;99.90;;;;;;5050253;28;20178;-50
2022/05/04 08:38:22;;;;;;;18.73;11.43;;;14.70;99.90;;;;;;5053292;28;20185;-49
2022/05/04 08:40:49;;;;;;;18.42;11.50;;;14.50;99.90;;;;;;5054174;28;20186;-51
2022/05/04 08:43:18;;;;;;;16.48;10.93;;;14.60;99.90;;;;;;5053809;28;20297;-45
2022/05/04 08:45:44;;;;;;;20.90;12.23;;;14.80;99.90;;;;;;5053693;28;20549;-49
2022/05/04 08:48:10;;;;;;;19.50;11.32;;;14.90;99.90;;;;;;5053766;28;20193;-43
2022/05/04 08:50:39;;;;;;;22.83;11.60;;;14.70;99.90;;;;;;5053555;28;20171;-44
2022/05/04 08:53:05;;;;;;;24.58;12.07;;;14.80;99.90;;;;;;5053448;28;20639;-44
2022/05/04 08:55:31;;;;;;;21.88;12.07;;;14.80;99.90;;;;;;5053961;28;20270;-44
2022/05/04 08:57:57;;;;;;;22.48;12.80;;;14.70;99.90;;;;;;5053917;28;20166;-45
2022/05/04 09:00:23;;;;;;;21.20;12.50;;;14.70;99.90;;;;;;5053852;28;20182;-45
2022/05/04 09:02:49;;;;;;;20.70;11.88;;;14.70;99.90;;;;;;5053153;28;20665;-45
2022/05/04 09:05:23;;;;;;;21.15;12.63;;;14.80;99.90;;;;;;5053807;28;20253;-45
2022/05/04 09:07:54;;;;;;;19.25;11.93;;;14.90;99.90;;;;;;5053661;28;20885;-45
2022/05/04 09:10:26;;;;;;;21.13;12.38;;;15.10;99.90;;;;;;5053565;28;20171;-46
2022/05/04 09:12:53;;;;;;;21.98;12.32;;;15.30;99.90;;;;;;5053283;28;20629;-44
2022/05/04 09:15:27;;;;;;;23.15;12.35;;;15.60;99.90;;;;;;5053256;28;20194;-44
2022/05/04 09:18:19;;;;;;;19.42;13.18;;;15.90;99.90;;;;;;5053784;28;20178;-45
2022/05/04 09:20:56;;;;;;;19.35;11.85;;;16.10;99.90;;;;;;5053410;28;20540;-47
2022/05/04 09:23:24;;;;;;;20.27;12.57;;;16.10;99.90;;;;;;5053292;28;20241;-45
2022/05/04 09:26:02;;;;;;;21.23;13.20;;;16.20;99.90;;;;;;5053697;28;20166;-46
2022/05/04 09:28:29;;;;;;;16.33;12.23;;;16.40;99.90;;;;;;5053228;28;20539;-45
2022/05/04 09:30:59;;;;;;;26.60;13.90;;;16.30;99.90;;;;;;5053073;28;20166;-44
2022/05/04 09:33:27;;;;;;;19.70;12.23;;;16.10;99.90;;;;;;5053072;28;20216;-45
2022/05/04 09:35:54;;;;;;;25.02;13.52;;;16.10;99.90;;;;;;5053167;28;20178;-46
2022/05/04 09:46:42;;;;;;;23.08;12.68;;;16.50;99.90;;;;;;5052783;28;20178;-44
2022/05/04 09:49:22;;;;;;;20.67;12.25;;;16.50;99.90;;;;;;5052022;28;20179;-46
2022/05/04 09:51:50;;;;;;;19.95;11.95;;;16.80;99.90;;;;;;5052721;28;20163;-45
2022/05/04 09:54:27;;;;;;;23.33;12.80;;;17.00;99.90;;;;;;5052567;28;20580;-44
2022/05/04 09:56:59;;;;;;;21.23;11.85;;;17.20;99.90;;;;;;5052343;28;20178;-46
2022/05/04 09:59:29;;;;;;;18.88;12.27;;;17.20;99.90;;;;;;5052634;28;20671;-44
2022/05/04 10:01:55;;;;;;;20.15;11.55;;;17.50;99.90;;;;;;5052729;28;20174;-47
2022/05/04 10:04:23;;;;;;;18.85;12.60;;;17.60;99.90;;;;;;5052429;28;20280;-47
2022/05/04 10:06:49;;;;;;;17.15;11.98;;;17.80;99.90;;;;;;5052588;28;20171;-46
2022/05/04 10:09:15;;;;;;;19.15;12.73;;;18.00;99.90;;;;;;5052249;28;20661;-44
2022/05/04 10:11:41;;;;;;;17.83;13.07;;;18.00;99.90;;;;;;5052143;28;20167;-47
2022/05/04 10:14:10;;;;;;;23.77;14.50;;;17.80;99.90;;;;;;5052201;28;20167;-45
2022/05/04 10:17:03;;;;;;;21.45;12.90;;;17.80;99.90;;;;;;5052617;28;20277;-45
2022/05/04 10:19:44;;;;;;;22.85;13.07;;;17.60;99.90;;;;;;5052365;28;20170;-49
2022/05/04 10:22:15;;;;;;;21.08;12.25;;;17.30;99.90;;;;;;5052350;28;20202;-46
2022/05/04 10:24:43;;;;;;;21.70;13.05;;;17.40;99.90;;;;;;5052010;28;20255;-45
2022/05/04 10:27:20;;;;;;;24.08;14.23;;;17.20;99.90;;;;;;5051963;28;20173;-45
2022/05/04 10:32:46;;;;;;;18.75;12.85;;;17.60;99.90;;;;;;5051989;28;20701;-46
2022/05/04 10:35:20;;;;;;;21.02;13.75;;;17.70;99.90;;;;;;5051819;28;20234;-46
2022/05/04 10:37:57;;;;;;;23.40;14.27;;;17.80;99.90;;;;;;5051975;28;20553;-46
2022/05/04 10:40:31;;;;;;;21.88;14.38;;;17.70;99.90;;;;;;5051958;28;20261;-49
2022/05/04 10:43:01;;;;;;;25.73;14.20;;;17.70;99.90;;;;;;5050461;28;20608;-46
2022/05/04 10:45:35;;;;;;;23.33;14.68;;;17.70;99.90;;;;;;5052082;28;20170;-47
2022/05/04 10:48:19;;;;;;;21.73;14.93;;;17.50;99.90;;;;;;5052033;28;20202;-47
2022/05/04 10:50:48;;;;;;;20.63;14.88;;;17.70;99.90;;;;;;5051791;28;20159;-46
2022/05/04 10:53:25;;;;;;;20.13;15.15;;;17.70;99.90;;;;;;5051927;28;20245;-47
2022/05/04 10:56:01;;;;;;;19.60;13.20;;;17.90;99.90;;;;;;5051651;28;20193;-47
2022/05/04 10:59:01;;;;;;;18.73;13.73;;;18.00;99.90;;;;;;5051770;28;20181;-49
2022/05/04 11:01:38;;;;;;;21.25;14.30;;;18.00;99.90;;;;;;5039257;28;20538;-45
2022/05/04 11:04:09;;;;;;;26.20;15.13;;;18.10;99.90;;;;;;5051445;28;20237;-46
2022/05/04 11:06:36;;;;;;;26.92;14.02;;;17.90;99.90;;;;;;5051417;28;20166;-44
2022/05/04 11:09:16;;;;;;;26.50;14.60;;;18.20;99.90;;;;;;5051530;28;20609;-47
2022/05/04 11:11:43;;;;;;;20.80;14.13;;;18.60;99.90;;;;;;5051410;28;20170;-45
2022/05/04 11:14:11;;;;;;;20.50;13.18;;;18.30;99.90;;;;;;5051598;28;20170;-46
2022/05/04 11:16:38;;;;;;;20.50;15.40;;;17.90;99.90;;;;;;5050929;28;20177;-46
2022/05/04 11:19:05;;;;;;;19.77;14.77;;;17.90;99.90;;;;;;5051393;28;20174;-45
2022/05/04 11:21:32;;;;;;;23.10;16.05;;;18.00;99.90;;;;;;5051717;28;20167;-45
2022/05/04 11:24:00;;;;;;;19.88;14.35;;;18.00;99.90;;;;;;5051114;28;20198;-45
2022/05/04 11:26:47;;;;;;;20.50;14.95;;;18.30;99.90;;;;;;5051279;28;20170;-45
2022/05/04 11:29:18;;;;;;;21.73;15.50;;;18.30;99.90;;;;;;5050957;28;20640;-47
2022/05/04 11:31:47;;;;;;;21.95;14.88;;;18.20;99.90;;;;;;5050924;28;20170;-46
2022/05/04 11:34:17;;;;;;;26.52;16.77;;;18.20;99.90;;;;;;5050989;28;20571;-46
2022/05/04 11:36:47;;;;;;;19.35;14.15;;;18.30;99.90;;;;;;5051009;28;20175;-45
2022/05/04 11:39:18;;;;;;;20.30;15.57;;;18.50;99.90;;;;;;5050789;28;20671;-47
2022/05/04 11:41:45;;;;;;;19.25;15.07;;;18.50;99.90;;;;;;5050878;28;20520;-47
2022/05/04 11:44:12;;;;;;;24.27;15.82;;;18.70;99.90;;;;;;5050919;28;20178;-44
2022/05/04 11:46:37;;;;;;;21.67;14.57;;;18.90;99.90;;;;;;5049958;28;20162;-44
2022/05/04 11:49:10;;;;;;;20.75;13.40;;;18.70;99.90;;;;;;5050680;28;20166;-46
2022/05/04 11:51:36;;;;;;;23.55;14.35;;;19.00;99.90;;;;;;5050569;28;20163;-45
2022/05/04 11:54:02;;;;;;;25.90;13.90;;;19.10;99.90;;;;;;5050811;28;20228;-46
2022/05/04 11:56:28;;;;;;;23.13;14.73;;;18.90;99.90;;;;;;5050399;28;20181;-46
2022/05/04 11:58:54;;;;;;;20.83;13.32;;;19.60;99.90;;;;;;5050817;28;20570;-46
2022/05/04 12:01:20;;;;;;;18.35;11.65;;;19.60;99.90;;;;;;5050866;28;20232;-46
2022/05/04 12:03:46;;;;;;;15.35;12.52;;;19.50;99.90;;;;;;5050458;28;20222;-46
2022/05/04 12:06:13;;;;;;;21.17;12.23;;;19.90;99.90;;;;;;5050017;28;20197;-45
2022/05/04 12:08:42;;;;;;;17.10;12.45;;;19.70;99.90;;;;;;5050558;28;20651;-45
2022/05/04 12:11:09;;;;;;;21.02;11.77;;;20.00;99.90;;;;;;5051575;28;20194;-48
2022/05/04 12:13:37;;;;;;;17.70;12.60;;;19.80;99.90;;;;;;5054366;28;20175;-45
2022/05/04 12:16:03;;;;;;;17.60;12.48;;;19.70;99.90;;;;;;5054922;28;20182;-46
2022/05/04 12:18:32;;;;;;;20.50;12.63;;;19.90;99.90;;;;;;5054466;28;20212;-45
2022/05/04 12:21:07;;;;;;;18.55;11.90;;;20.00;99.90;;;;;;5054542;28;20196;-45
2022/05/04 12:23:34;;;;;;;19.70;11.30;;;19.90;99.90;;;;;;5054691;28;20246;-45
2022/05/04 12:26:01;;;;;;;16.45;10.32;;;19.90;99.90;;;;;;5054344;28;20171;-48
2022/05/04 12:28:27;;;;;;;18.13;10.98;;;19.90;99.90;;;;;;5054269;28;20214;-45
2022/05/04 12:33:37;;;;;;;13.75;9.93;;;20.20;99.90;;;;;;5054209;28;20678;-46
2022/05/04 12:36:07;;;;;;;17.25;10.55;;;20.50;99.90;;;;;;5054447;28;20213;-46
2022/05/04 12:38:34;;;;;;;18.15;11.07;;;20.50;99.90;;;;;;5054415;28;20194;-46
2022/05/04 12:41:01;;;;;;;18.33;10.13;;;21.00;99.90;;;;;;5054313;28;20213;-45
2022/05/04 12:43:33;;;;;;;15.98;10.80;;;20.70;99.90;;;;;;5053864;28;20206;-46
2022/05/04 12:45:59;;;;;;;16.48;9.75;;;20.70;99.90;;;;;;5053824;28;20167;-45
2022/05/04 12:48:25;;;;;;;16.73;9.07;;;20.80;99.90;;;;;;5053777;28;20262;-45
2022/05/04 12:50:56;;;;;;;15.43;8.88;;;20.70;99.90;;;;;;5053681;28;20170;-45
2022/05/04 12:53:23;;;;;;;12.32;8.25;;;20.40;99.80;;;;;;5053714;28;20674;-46
2022/05/04 12:58:33;;;;;;;12.40;6.63;;;20.60;95.40;;;;;;5053941;28;20249;-45
2022/05/04 13:00:59;;;;;;;8.68;5.90;;;20.70;92.10;;;;;;5053589;28;20168;-46
2022/05/04 13:03:25;;;;;;;10.95;6.82;;;20.50;93.50;;;;;;5053422;28;20245;-46
2022/05/04 13:05:50;;;;;;;13.10;6.10;;;20.40;93.70;;;;;;5051829;28;20170;-46
2022/05/04 13:08:16;;;;;;;12.57;6.47;;;20.60;93.00;;;;;;5053453;28;20297;-48
2022/05/04 13:10:41;;;;;;;12.27;7.07;;;20.80;93.40;;;;;;5053520;28;20174;-48
2022/05/04 13:13:07;;;;;;;11.93;5.50;;;20.70;93.40;;;;;;5053611;28;20174;-45